Time;durP1;ratioP1;P1;durP2;ratioP2;P2;SDS_P1;SDS_P2;PMS_P1;PMS_P2;Temp;Humidity;BMP_temperature;BMP_pressure;BME280_temperature;BME280_humidity;BME280_pressure;Samples;Min_cycle;Max_cycle;Signal;HPM_P1;HPM_P2
2020/12/14 00:00:16;;;;;;;17.12;8.33;;;;;;;1.75;79.65;100428.90;1708921;83;21405;-62
2020/12/14 00:02:43;;;;;;;14.03;8.18;;;;;;;1.75;79.73;100432.45;1709014;83;21441;-62
2020/12/14 00:05:11;;;;;;;15.68;9.05;;;;;;;1.80;79.78;100431.53;1708979;83;21119;-65
2020/12/14 00:07:38;;;;;;;15.43;8.70;;;;;;;1.80;79.71;100434.73;1709220;83;21383;-62
2020/12/14 00:10:06;;;;;;;16.85;9.53;;;;;;;1.77;79.66;100435.02;1708974;83;21341;-62
2020/12/14 00:12:34;;;;;;;18.10;9.28;;;;;;;1.75;79.69;100434.30;1709005;83;21471;-65
2020/12/14 00:15:06;;;;;;;16.65;9.30;;;;;;;1.74;79.81;100439.34;1709042;83;21083;-62
2020/12/14 00:17:34;;;;;;;14.93;8.58;;;;;;;1.76;79.92;100429.26;1709003;83;21170;-63
2020/12/14 00:20:01;;;;;;;17.12;9.18;;;;;;;1.78;79.89;100435.38;1708517;83;21190;-61
2020/12/14 00:22:32;;;;;;;18.30;9.55;;;;;;;1.77;79.98;100438.57;1708499;83;21103;-62
2020/12/14 00:25:00;;;;;;;17.73;10.08;;;;;;;1.80;80.05;100439.64;1708161;83;21080;-62
2020/12/14 00:27:28;;;;;;;18.48;10.85;;;;;;;1.80;79.98;100440.14;1708611;84;21404;-63
2020/12/14 00:29:55;;;;;;;20.23;10.32;;;;;;;1.78;79.98;100443.48;1708650;83;21229;-61
2020/12/14 00:32:23;;;;;;;20.17;9.55;;;;;;;1.77;79.91;100445.82;1708895;83;21225;-62
2020/12/14 00:34:51;;;;;;;18.95;10.45;;;;;;;1.74;79.91;100440.70;1708681;83;21403;-64
2020/12/14 00:37:19;;;;;;;20.75;11.57;;;;;;;1.74;80.00;100440.20;1708681;83;21201;-63
2020/12/14 00:39:47;;;;;;;23.47;12.03;;;;;;;1.73;80.11;100437.14;1708921;83;21327;-64
2020/12/14 00:42:14;;;;;;;22.37;11.12;;;;;;;1.76;80.20;100436.02;1708626;83;21815;-62
2020/12/14 00:44:42;;;;;;;20.57;10.32;;;;;;;1.74;80.04;100433.45;1709013;83;21031;-62
2020/12/14 00:47:09;;;;;;;19.80;10.08;;;;;;;1.71;79.99;100436.93;1709113;83;21095;-61
2020/12/14 00:49:37;;;;;;;18.32;10.13;;;;;;;1.72;80.08;100443.54;1708983;84;21197;-63
2020/12/14 00:52:04;;;;;;;16.00;8.95;;;;;;;1.72;80.04;100436.79;1703763;84;21068;-64
2020/12/14 00:54:32;;;;;;;21.12;11.97;;;;;;;1.70;80.11;100440.63;1698630;84;21313;-63
2020/12/14 00:57:00;;;;;;;22.13;11.95;;;;;;;1.66;80.11;100443.25;1698645;84;21243;-63
2020/12/14 00:59:27;;;;;;;21.50;11.03;;;;;;;1.64;80.18;100439.83;1698627;84;21143;-64
2020/12/14 01:01:54;;;;;;;20.88;11.25;;;;;;;1.64;80.19;100437.98;1698592;84;21891;-60
2020/12/14 01:04:22;;;;;;;22.52;11.20;;;;;;;1.63;80.22;100432.72;1698642;84;21099;-63
2020/12/14 01:06:53;;;;;;;24.90;12.13;;;;;;;1.65;80.29;100441.54;1698657;84;21092;-63
2020/12/14 01:09:21;;;;;;;19.82;10.90;;;;;;;1.63;80.40;100447.08;1698752;84;21118;-63
2020/12/14 01:11:49;;;;;;;24.00;12.33;;;;;;;1.64;80.46;100441.19;1698612;84;21123;-63
2020/12/14 01:14:17;;;;;;;19.80;9.90;;;;;;;1.65;80.51;100438.84;1698632;84;21335;-63
2020/12/14 01:16:47;;;;;;;16.75;8.98;;;;;;;1.67;80.54;100443.11;1698633;84;21466;-61
2020/12/14 01:19:15;;;;;;;15.30;8.78;;;;;;;1.69;80.50;100428.97;1698659;84;21284;-65
2020/12/14 01:21:42;;;;;;;18.35;10.00;;;;;;;1.71;80.55;100440.48;1698691;84;21322;-62
2020/12/14 01:24:09;;;;;;;16.12;9.68;;;;;;;1.75;80.60;100443.26;1698780;84;21186;-62
2020/12/14 01:26:37;;;;;;;18.27;10.48;;;;;;;1.78;80.55;100436.72;1698741;84;21831;-62
2020/12/14 01:29:04;;;;;;;17.17;9.10;;;;;;;1.80;80.54;100434.73;1698654;84;21276;-64
2020/12/14 01:31:31;;;;;;;15.95;9.18;;;;;;;1.83;80.49;100432.61;1698632;84;21072;-62
2020/12/14 01:33:59;;;;;;;17.95;9.35;;;;;;;1.85;80.35;100435.16;1698870;84;21159;-62
2020/12/14 01:36:26;;;;;;;17.12;9.65;;;;;;;1.85;80.25;100430.62;1698656;84;21067;-62
2020/12/14 01:38:54;;;;;;;18.70;9.85;;;;;;;1.83;80.24;100433.95;1698733;84;21323;-62
2020/12/14 01:41:21;;;;;;;17.62;8.98;;;;;;;1.81;80.21;100431.04;1698646;84;21345;-63
2020/12/14 01:43:49;;;;;;;16.82;8.28;;;;;;;1.76;80.17;100425.20;1698622;84;21071;-62
2020/12/14 01:46:22;;;;;;;13.60;7.47;;;;;;;1.72;80.16;100422.43;1698636;84;21302;-62
2020/12/14 01:48:49;;;;;;;13.35;7.72;;;;;;;1.71;80.15;100429.67;1674886;84;21092;-61
2020/12/14 01:51:17;;;;;;;14.95;8.55;;;;;;;1.71;80.27;100430.17;1698906;83;21044;-61
2020/12/14 01:53:44;;;;;;;16.40;8.48;;;;;;;1.73;80.46;100427.69;1708986;83;21325;-62
2020/12/14 01:56:12;;;;;;;18.30;8.53;;;;;;;1.77;80.54;100425.56;1709092;83;21831;-63
2020/12/14 01:58:39;;;;;;;16.37;7.53;;;;;;;1.79;80.46;100424.43;1708947;83;21531;-62
2020/12/14 02:01:06;;;;;;;14.50;7.30;;;;;;;1.80;80.36;100423.93;1708929;83;21356;-62
2020/12/14 02:03:34;;;;;;;12.73;6.85;;;;;;;1.83;80.36;100425.00;1709028;83;21080;-63
2020/12/14 02:06:01;;;;;;;14.03;8.15;;;;;;;1.84;80.33;100430.76;1709031;83;21043;-63
2020/12/14 02:08:28;;;;;;;13.32;8.13;;;;;;;1.83;80.29;100427.70;1708948;83;21103;-60
2020/12/14 02:10:56;;;;;;;15.35;8.33;;;;;;;1.82;80.27;100427.34;1709040;83;21325;-60
2020/12/14 02:13:24;;;;;;;13.68;7.60;;;;;;;1.84;80.23;100422.66;1708956;83;21164;-62
2020/12/14 02:15:52;;;;;;;13.30;7.30;;;;;;;1.85;80.05;100424.36;1709036;84;21589;-62
2020/12/14 02:18:19;;;;;;;15.45;7.95;;;;;;;1.82;79.91;100429.55;1709020;83;21185;-62
2020/12/14 02:20:47;;;;;;;14.55;7.90;;;;;;;1.81;79.88;100432.39;1708920;83;21323;-61
2020/12/14 02:23:14;;;;;;;14.35;8.50;;;;;;;1.78;80.00;100430.82;1708904;84;21505;-61
2020/12/14 02:25:42;;;;;;;15.75;8.73;;;;;;;1.78;80.00;100431.32;1708910;83;21064;-62
2020/12/14 02:28:09;;;;;;;16.67;8.40;;;;;;;1.77;80.06;100439.06;1708942;83;21364;-62
2020/12/14 02:30:37;;;;;;;16.35;8.20;;;;;;;1.78;80.05;100438.08;1708975;84;21353;-62
2020/12/14 02:33:05;;;;;;;16.82;8.30;;;;;;;1.80;80.05;100434.73;1709079;83;21035;-62
2020/12/14 02:35:32;;;;;;;18.02;9.90;;;;;;;1.82;79.96;100434.09;1709003;84;21052;-63
2020/12/14 02:37:59;;;;;;;17.00;10.13;;;;;;;1.82;79.97;100437.66;1708957;83;21309;-64
2020/12/14 02:40:27;;;;;;;17.48;10.43;;;;;;;1.82;79.93;100435.45;1708903;83;21078;-64
2020/12/14 02:42:54;;;;;;;18.02;9.30;;;;;;;1.81;79.90;100432.39;1708937;83;21655;-62
2020/12/14 02:45:21;;;;;;;17.27;9.33;;;;;;;1.80;79.93;100434.23;1708978;83;21035;-62
2020/12/14 02:47:49;;;;;;;16.48;9.15;;;;;;;1.84;79.89;100428.91;1709057;83;21067;-63
2020/12/14 02:50:16;;;;;;;15.13;8.73;;;;;;;1.84;79.81;100428.05;1709046;83;21062;-64
2020/12/14 02:52:43;;;;;;;15.98;8.63;;;;;;;1.83;79.84;100429.91;1708987;83;21300;-62
2020/12/14 02:55:11;;;;;;;15.58;8.65;;;;;;;1.82;79.86;100434.09;1709053;84;21276;-63
2020/12/14 02:57:38;;;;;;;14.33;7.22;;;;;;;1.81;79.95;100431.04;1709067;84;21024;-62
2020/12/14 03:00:06;;;;;;;11.90;6.83;;;;;;;1.83;79.90;100426.34;1709021;83;21334;-61
2020/12/14 03:02:33;;;;;;;14.03;7.40;;;;;;;1.82;79.78;100431.39;1709054;83;21154;-62
2020/12/14 03:05:01;;;;;;;13.55;8.05;;;;;;;1.82;79.86;100435.45;1709079;83;21675;-63
2020/12/14 03:07:28;;;;;;;12.53;7.65;;;;;;;1.83;79.85;100431.25;1709040;83;21055;-63
2020/12/14 03:09:55;;;;;;;14.55;7.92;;;;;;;1.83;79.86;100429.05;1709038;83;22139;-61
2020/12/14 03:12:22;;;;;;;15.35;7.45;;;;;;;1.86;79.82;100434.17;1709057;84;21071;-62
2020/12/14 03:14:51;;;;;;;13.68;6.95;;;;;;;1.86;79.70;100426.06;1680807;84;21301;-62
2020/12/14 03:17:18;;;;;;;11.25;6.92;;;;;;;1.87;79.58;100427.77;1709282;83;21234;-62
2020/12/14 03:19:46;;;;;;;11.93;7.50;;;;;;;1.84;79.50;100428.05;1709031;83;21365;-61
2020/12/14 03:22:14;;;;;;;14.35;8.08;;;;;;;1.81;79.54;100426.98;1709077;83;21178;-63
2020/12/14 03:24:41;;;;;;;15.30;8.38;;;;;;;1.75;79.51;100433.80;1709105;83;21820;-62
2020/12/14 03:27:08;;;;;;;14.35;7.65;;;;;;;1.72;79.69;100427.34;1709082;83;21095;-63
2020/12/14 03:29:36;;;;;;;14.35;7.15;;;;;;;1.73;79.74;100424.98;1709053;83;21807;-63
2020/12/14 03:32:03;;;;;;;11.50;6.42;;;;;;;1.76;79.79;100428.77;1709061;83;21295;-62
2020/12/14 03:34:30;;;;;;;11.78;7.28;;;;;;;1.77;79.78;100425.56;1709001;84;21327;-62
2020/12/14 03:36:58;;;;;;;15.00;7.58;;;;;;;1.75;79.76;100432.45;1709057;83;21808;-63
2020/12/14 03:39:25;;;;;;;14.87;7.85;;;;;;;1.74;79.82;100430.75;1709044;83;21475;-63
2020/12/14 03:41:52;;;;;;;13.13;7.37;;;;;;;1.74;79.88;100432.09;1709038;84;21382;-61
2020/12/14 03:44:20;;;;;;;13.95;6.90;;;;;;;1.76;79.90;100430.11;1709140;83;21329;-62
2020/12/14 03:46:50;;;;;;;11.43;6.12;;;;;;;1.81;79.89;100435.09;1708924;83;21111;-62
2020/12/14 03:49:18;;;;;;;12.37;6.58;;;;;;;1.84;79.82;100429.41;1681294;83;21064;-62
2020/12/14 03:51:45;;;;;;;12.00;6.53;;;;;;;1.84;79.75;100434.81;1708959;83;21820;-62
2020/12/14 03:54:12;;;;;;;11.22;6.42;;;;;;;1.84;79.70;100430.76;1709013;83;21616;-62
2020/12/14 03:56:40;;;;;;;14.20;6.45;;;;;;;1.80;79.59;100432.03;1709048;83;21059;-62
2020/12/14 03:59:08;;;;;;;10.18;5.85;;;;;;;1.79;79.63;100435.73;1709067;83;21388;-64
2020/12/14 04:01:35;;;;;;;10.80;6.75;;;;;;;1.78;79.56;100440.28;1709028;83;21334;-62
2020/12/14 04:04:03;;;;;;;12.85;7.03;;;;;;;1.80;79.66;100439.64;1709054;83;21238;-63
2020/12/14 04:06:30;;;;;;;12.60;6.65;;;;;;;1.81;79.67;100439.14;1708972;83;21068;-62
2020/12/14 04:08:58;;;;;;;12.23;6.70;;;;;;;1.81;79.64;100444.55;1709023;83;21063;-63
2020/12/14 04:11:26;;;;;;;10.30;6.12;;;;;;;1.79;79.58;100447.88;1709304;84;21107;-62
2020/12/14 04:13:54;;;;;;;11.80;6.60;;;;;;;1.76;79.59;100445.47;1709051;83;21051;-61
2020/12/14 04:16:21;;;;;;;14.07;6.42;;;;;;;1.76;79.56;100438.22;1709061;83;21370;-62
2020/12/14 04:18:49;;;;;;;10.25;5.80;;;;;;;1.77;79.56;100434.52;1709004;83;21363;-62
2020/12/14 04:21:17;;;;;;;10.88;5.62;;;;;;;1.75;79.53;100441.05;1708967;83;21892;-63
2020/12/14 04:23:45;;;;;;;10.72;5.90;;;;;;;1.74;79.59;100438.00;1709063;83;21071;-62
2020/12/14 04:26:15;;;;;;;9.55;5.40;;;;;;;1.76;79.59;100444.11;1709075;83;21282;-63
2020/12/14 04:28:42;;;;;;;11.48;5.90;;;;;;;1.75;79.54;100438.35;1709068;84;21687;-64
2020/12/14 04:31:10;;;;;;;11.80;6.37;;;;;;;1.78;79.55;100448.88;1708984;83;21408;-62
2020/12/14 04:33:39;;;;;;;12.82;7.55;;;;;;;1.81;79.49;100448.59;1709021;83;21772;-61
2020/12/14 04:36:06;;;;;;;11.70;6.55;;;;;;;1.82;79.41;100449.80;1680797;83;21091;-63
2020/12/14 04:38:34;;;;;;;11.12;6.42;;;;;;;1.81;79.37;100456.70;1709063;83;21748;-62
2020/12/14 04:41:03;;;;;;;11.43;6.83;;;;;;;1.77;79.35;100465.58;1709066;84;21326;-62
2020/12/14 04:43:31;;;;;;;11.78;6.17;;;;;;;1.73;79.26;100463.30;1709027;83;21066;-63
2020/12/14 04:46:00;;;;;;;11.30;6.47;;;;;;;1.72;79.34;100465.14;1708984;83;21833;-63
2020/12/14 04:48:27;;;;;;;13.65;6.42;;;;;;;1.75;79.39;100468.06;1709034;83;21405;-62
2020/12/14 04:50:55;;;;;;;12.85;7.10;;;;;;;1.77;79.38;100470.13;1709014;83;21193;-63
2020/12/14 04:53:22;;;;;;;11.65;5.90;;;;;;;1.77;79.41;100463.38;1708989;83;21828;-63
2020/12/14 04:55:50;;;;;;;15.03;9.15;;;;;;;1.77;79.46;100467.42;1708977;83;21205;-64
2020/12/14 04:58:17;;;;;;;12.60;7.58;;;;;;;1.79;79.50;100472.20;1708974;84;21075;-64
2020/12/14 05:00:44;;;;;;;9.48;5.75;;;;;;;1.79;79.44;100462.74;1708945;83;22002;-61
2020/12/14 05:03:12;;;;;;;9.13;5.75;;;;;;;1.80;79.35;100466.66;1709024;83;21384;-64
2020/12/14 05:05:41;;;;;;;9.45;5.22;;;;;;;1.81;79.29;100470.20;1709135;83;21186;-63
2020/12/14 05:08:08;;;;;;;9.58;5.53;;;;;;;1.81;79.18;100481.02;1709020;83;21334;-62
2020/12/14 05:10:37;;;;;;;10.53;5.22;;;;;;;1.78;79.16;100483.99;1708964;83;21739;-64
2020/12/14 05:13:11;;;;;;;10.40;6.08;;;;;;;1.72;79.14;100486.75;1658137;84;21091;-62
2020/12/14 05:15:40;;;;;;;16.87;7.15;;;;;;;1.69;79.24;100487.03;1708928;84;21763;-63
2020/12/14 05:18:15;;;;;;;10.30;5.80;;;;;;;1.71;79.36;100496.34;1708953;83;21071;-61
2020/12/14 05:20:43;;;;;;;9.98;5.92;;;;;;;1.73;79.30;100491.66;1713563;83;20972;-63
2020/12/14 05:23:11;;;;;;;12.53;6.97;;;;;;;1.70;79.30;100491.44;1713740;83;20988;-62
2020/12/14 05:25:38;;;;;;;12.30;7.10;;;;;;;1.69;79.41;100491.08;1713583;83;21020;-63
2020/12/14 05:28:19;;;;;;;9.95;6.22;;;;;;;1.71;79.43;100493.15;1713724;83;21419;-64
2020/12/14 05:30:48;;;;;;;13.32;6.97;;;;;;;1.71;79.37;100490.95;1713676;83;20988;-63
2020/12/14 05:33:22;;;;;;;12.65;6.90;;;;;;;1.70;79.34;100498.20;1713595;83;21024;-65
2020/12/14 05:35:49;;;;;;;15.98;7.50;;;;;;;1.74;79.38;100504.17;1713580;83;21012;-64
2020/12/14 05:38:31;;;;;;;14.33;7.80;;;;;;;1.73;79.30;100503.81;1713528;84;21004;-66
2020/12/14 05:41:03;;;;;;;14.53;8.50;;;;;;;1.72;79.36;100497.56;1713678;83;21036;-63
2020/12/14 05:43:32;;;;;;;15.83;8.98;;;;;;;1.75;79.40;100497.78;1713603;83;21490;-62
2020/12/14 05:46:14;;;;;;;13.55;7.95;;;;;;;1.75;79.33;100497.78;1713631;83;20976;-63
2020/12/14 05:48:42;;;;;;;21.10;10.08;;;;;;;1.73;79.28;100503.81;1713727;83;20980;-64
2020/12/14 05:51:10;;;;;;;20.10;10.18;;;;;;;1.73;79.29;100515.47;1713639;83;21004;-63
2020/12/14 05:53:48;;;;;;;20.65;10.78;;;;;;;1.77;79.29;100519.61;1713500;83;21071;-63
2020/12/14 05:56:17;;;;;;;22.10;10.68;;;;;;;1.78;79.20;100521.81;1713511;83;21012;-62
2020/12/14 05:58:45;;;;;;;19.27;11.05;;;;;;;1.75;79.13;100522.09;1713495;83;21143;-63
2020/12/14 06:01:12;;;;;;;20.72;11.38;;;;;;;1.74;79.23;100524.43;1713824;83;21008;-63
2020/12/14 06:03:40;;;;;;;20.68;11.20;;;;;;;1.73;79.22;100524.08;1713973;83;20996;-63
2020/12/14 06:06:15;;;;;;;19.65;10.08;;;;;;;1.72;79.25;100527.77;1713911;83;21010;-63
2020/12/14 06:08:58;;;;;;;16.10;8.95;;;;;;;1.74;79.17;100527.13;1713404;83;21020;-62
2020/12/14 06:11:26;;;;;;;19.05;10.75;;;;;;;1.72;79.12;100529.12;1713999;83;20980;-62
2020/12/14 06:13:59;;;;;;;20.72;12.07;;;;;;;1.69;79.14;100530.25;1714254;83;20983;-64
2020/12/14 06:16:39;;;;;;;25.10;13.13;;;;;;;1.67;79.22;100534.08;1713976;84;20968;-61
2020/12/14 06:19:06;;;;;;;21.12;11.35;;;;;;;1.68;79.39;100539.34;1714031;84;20976;-62
2020/12/14 06:21:47;;;;;;;21.20;11.08;;;;;;;1.72;79.44;100537.22;1713913;83;21028;-62
2020/12/14 06:24:22;;;;;;;18.92;10.40;;;;;;;1.74;79.34;100548.74;1714069;83;21415;-64
2020/12/14 06:26:49;;;;;;;21.65;11.35;;;;;;;1.71;79.21;100547.66;1714011;83;20960;-64
2020/12/14 06:29:34;;;;;;;23.55;12.45;;;;;;;1.65;79.24;100554.97;1685717;83;21032;-62
2020/12/14 06:32:02;;;;;;;22.95;12.78;;;;;;;1.62;79.35;100560.64;1714245;83;21008;-63
2020/12/14 06:34:38;;;;;;;22.75;11.22;;;;;;;1.62;79.52;100558.80;1713780;83;21064;-63
2020/12/14 06:37:05;;;;;;;23.30;12.55;;;;;;;1.67;79.65;100559.73;1713853;83;20988;-63
2020/12/14 06:39:37;;;;;;;23.15;12.55;;;;;;;1.71;79.60;100559.82;1714034;83;21169;-61
2020/12/14 06:42:17;;;;;;;21.57;11.60;;;;;;;1.71;79.57;100547.66;1713883;83;21030;-62
2020/12/14 06:44:50;;;;;;;21.70;10.88;;;;;;;1.71;79.59;100550.37;1713885;83;21434;-63
2020/12/14 06:47:18;;;;;;;21.02;11.90;;;;;;;1.68;79.53;100551.99;1714007;83;20984;-61
2020/12/14 06:49:47;;;;;;;25.88;12.43;;;;;;;1.62;79.56;100539.03;1714150;83;21371;-62
2020/12/14 06:52:35;;;;;;;24.98;14.18;;;;;;;1.63;79.63;100542.09;1714141;83;20995;-64
2020/12/14 06:55:02;;;;;;;42.58;25.77;;;;;;;1.65;79.64;100542.81;1713746;83;21059;-64
2020/12/14 06:57:37;;;;;;;31.65;18.00;;;;;;;1.64;79.69;100541.10;1713955;83;21012;-63
2020/12/14 09:02:29;;;;;;;32.83;15.00;;;;;;;2.30;77.46;100570.65;1756891;77;22845;-62
2020/12/14 09:04:57;;;;;;;25.72;13.70;;;;;;;2.27;77.38;100561.97;1675642;84;21211;-62
2020/12/14 09:07:26;;;;;;;26.85;13.15;;;;;;;2.27;77.31;100560.12;1668021;84;21866;-62
2020/12/14 09:09:53;;;;;;;24.90;12.33;;;;;;;2.27;77.21;100552.50;1676051;84;21228;-61
2020/12/14 09:12:21;;;;;;;31.93;16.23;;;;;;;2.26;77.26;100554.35;1668235;84;21513;-63
2020/12/14 09:14:48;;;;;;;30.37;17.10;;;;;;;2.29;77.23;100551.38;1675281;84;21458;-65
2020/12/14 09:17:18;;;;;;;30.70;17.80;;;;;;;2.34;77.31;100552.30;1667087;86;21236;-65
2020/12/14 09:19:50;;;;;;;27.25;14.13;;;;;;;2.39;77.31;100548.67;1674750;84;21191;-62
2020/12/14 09:22:22;;;;;;;24.15;13.85;;;;;;;2.42;77.19;100538.92;1674722;84;21761;-66
2020/12/14 09:24:50;;;;;;;36.88;20.55;;;;;;;2.46;77.06;100540.34;1676300;85;21761;-69
2020/12/14 09:27:18;;;;;;;30.30;15.50;;;;;;;2.46;76.82;100537.64;1676401;84;21972;-62
2020/12/14 09:29:45;;;;;;;28.45;13.08;;;;;;;2.45;76.70;100535.94;1659703;84;21472;-62
2020/12/14 09:32:13;;;;;;;32.40;14.47;;;;;;;2.44;76.71;100536.93;1676071;84;21360;-65
2020/12/14 09:34:41;;;;;;;28.35;14.50;;;;;;;2.43;76.68;100540.13;1647562;85;21441;-61
2020/12/14 09:37:09;;;;;;;54.90;22.22;;;;;;;2.43;76.58;100544.69;1676090;84;21228;-63
2020/12/14 09:39:39;;;;;;;37.20;17.15;;;;;;;2.38;76.51;100550.52;1649007;85;21496;-63
2020/12/14 09:42:07;;;;;;;28.55;13.78;;;;;;;2.33;76.60;100555.50;1676023;84;21478;-63
2020/12/14 09:44:35;;;;;;;25.50;13.43;;;;;;;2.31;76.76;100554.78;1648769;85;22009;-61
2020/12/14 09:47:04;;;;;;;32.50;14.60;;;;;;;2.32;76.87;100556.98;1676073;85;21188;-62
2020/12/14 09:49:33;;;;;;;31.77;15.25;;;;;;;2.33;76.83;100558.70;1649038;85;21486;-64
2020/12/14 09:52:00;;;;;;;30.97;15.63;;;;;;;2.36;76.85;100562.47;1675981;85;21181;-62
2020/12/14 09:54:28;;;;;;;32.38;15.68;;;;;;;2.38;76.79;100568.09;1648922;85;21354;-63
2020/12/14 09:56:56;;;;;;;34.20;16.73;;;;;;;2.39;76.68;100571.66;1676016;84;21208;-61
2020/12/14 09:59:23;;;;;;;30.80;16.02;;;;;;;2.35;76.69;100573.78;1663643;84;21500;-62
2020/12/14 10:01:51;;;;;;;30.37;16.35;;;;;;;2.34;76.74;100580.69;1660555;85;21696;-63
2020/12/14 10:04:18;;;;;;;30.17;14.47;;;;;;;2.28;76.75;100584.80;1634485;86;21977;-62
2020/12/14 10:06:47;;;;;;;29.52;15.60;;;;;;;2.25;76.87;100583.73;1671281;84;21925;-62
2020/12/14 10:09:15;;;;;;;32.93;17.50;;;;;;;2.22;76.94;100578.11;1678539;84;21180;-63
2020/12/14 10:11:42;;;;;;;30.10;15.35;;;;;;;2.25;77.19;100580.17;1678928;84;21897;-65
2020/12/14 10:14:10;;;;;;;29.60;15.80;;;;;;;2.25;77.27;100580.17;1669097;84;21615;-65
2020/12/14 10:16:38;;;;;;;32.13;16.52;;;;;;;2.28;77.54;100585.30;1689778;83;21332;-65
2020/12/14 10:19:07;;;;;;;32.48;15.80;;;;;;;2.30;77.71;100588.22;1689295;83;21304;-65
2020/12/14 10:21:35;;;;;;;31.62;16.60;;;;;;;2.32;77.72;100581.33;1676490;84;21849;-67
2020/12/14 10:24:02;;;;;;;33.88;17.62;;;;;;;2.37;77.85;100575.00;1627584;85;21835;-65
2020/12/14 10:26:30;;;;;;;83.45;38.48;;;;;;;2.41;77.85;100573.72;1639013;86;21967;-65
2020/12/14 10:28:57;;;;;;;41.77;22.07;;;;;;;2.45;77.88;100572.44;1670723;84;21220;-63
2020/12/14 10:31:24;;;;;;;91.15;44.70;;;;;;;2.48;77.79;100573.52;1671530;84;21141;-66
2020/12/14 10:33:52;;;;;;;65.47;30.72;;;;;;;2.48;77.50;100572.16;1675732;85;21201;-68
2020/12/14 10:36:19;;;;;;;85.05;36.35;;;;;;;2.46;77.28;100570.95;1678783;84;21166;-70
2020/12/14 10:38:47;;;;;;;41.70;19.60;;;;;;;2.45;77.13;100572.44;1678266;84;21220;-63
2020/12/14 10:41:17;;;;;;;37.88;19.02;;;;;;;2.44;77.16;100566.17;1679230;83;21153;-67
2020/12/14 10:43:45;;;;;;;77.03;30.90;;;;;;;2.44;77.28;100571.59;1668732;85;21414;-68
2020/12/14 10:46:12;;;;;;;51.50;24.18;;;;;;;2.44;77.39;100563.97;1681812;84;21132;-69
2020/12/14 10:48:39;;;;;;;44.98;21.02;;;;;;;2.43;77.36;100571.23;1681955;84;21143;-69
2020/12/14 10:51:07;;;;;;;42.23;19.30;;;;;;;2.43;77.46;100564.47;1674279;84;21107;-70
2020/12/14 10:53:35;;;;;;;46.10;22.32;;;;;;;2.46;77.55;100561.98;1667920;84;21654;-64
2020/12/14 10:56:02;;;;;;;90.40;32.38;;;;;;;2.51;77.67;100565.11;1685268;84;21109;-66
2020/12/14 10:58:29;;;;;;;53.02;22.80;;;;;;;2.52;77.71;100562.77;1682180;84;21156;-65
2020/12/14 11:04:24;;;;;;;35.92;17.48;;;;;;;2.56;77.56;100568.25;1837897;77;22945;-64
2020/12/14 11:06:52;;;;;;;37.05;16.77;;;;;;;2.48;77.49;100561.34;1790645;78;21376;-64
2020/12/14 11:09:19;;;;;;;41.60;18.52;;;;;;;2.48;77.35;100565.39;1785379;80;21385;-65
2020/12/14 11:11:46;;;;;;;33.55;16.65;;;;;;;2.42;77.41;100565.47;1789102;79;21915;-64
2020/12/14 11:14:14;;;;;;;31.95;17.65;;;;;;;2.44;77.50;100563.97;1730967;81;21185;-63
2020/12/14 11:16:45;;;;;;;37.35;18.12;;;;;;;2.41;77.47;100569.66;1743226;82;21929;-64
2020/12/14 11:19:13;;;;;;;39.08;20.23;;;;;;;2.41;77.67;100570.52;1728117;83;21415;-62
2020/12/14 11:21:41;;;;;;;45.10;19.65;;;;;;;2.43;77.59;100572.58;1727506;82;21303;-64
2020/12/14 11:24:08;;;;;;;48.45;20.55;;;;;;;2.44;77.58;100572.08;1750657;81;21417;-64
2020/12/14 11:26:35;;;;;;;41.28;19.57;;;;;;;2.46;77.47;100567.39;1739091;82;21878;-65
2020/12/14 11:29:03;;;;;;;38.15;18.48;;;;;;;2.46;77.46;100563.33;1733489;82;21237;-65
2020/12/14 11:31:30;;;;;;;41.08;19.27;;;;;;;2.46;77.53;100566.89;1736027;81;21794;-64
2020/12/14 11:33:57;;;;;;;39.95;20.02;;;;;;;2.47;77.52;100575.86;1733543;81;21420;-64
2020/12/14 11:36:28;;;;;;;43.48;19.92;;;;;;;2.47;77.45;100574.01;1752057;81;21408;-69
2020/12/14 11:38:56;;;;;;;39.23;17.65;;;;;;;2.50;77.46;100580.48;1754453;80;21219;-65
2020/12/14 11:41:24;;;;;;;41.35;18.73;;;;;;;2.53;77.39;100573.94;1763775;80;21778;-65
2020/12/14 11:43:54;;;;;;;37.90;18.37;;;;;;;2.56;77.36;100572.30;1756973;80;21959;-65
2020/12/14 11:46:22;;;;;;;37.08;18.02;;;;;;;2.58;77.39;100574.36;1728579;81;21931;-66
2020/12/14 11:48:49;;;;;;;35.25;17.75;;;;;;;2.58;77.40;100573.02;1733744;81;21137;-66
2020/12/14 11:51:17;;;;;;;42.10;19.65;;;;;;;2.61;77.42;100581.38;1732999;82;21371;-64
2020/12/14 11:53:44;;;;;;;50.33;21.97;;;;;;;2.62;77.46;100579.87;1719889;82;21341;-64
2020/12/14 11:56:12;;;;;;;41.10;18.02;;;;;;;2.65;77.42;100581.45;1730045;82;21181;-63
2020/12/14 11:58:40;;;;;;;44.03;18.42;;;;;;;2.68;77.38;100598.25;1721994;82;21169;-64
2020/12/14 12:01:07;;;;;;;40.92;18.57;;;;;;;2.71;77.28;100595.75;1729453;82;21372;-65
2020/12/14 12:03:35;;;;;;;47.00;19.30;;;;;;;2.71;77.25;100604.73;1694372;83;21926;-65
2020/12/14 12:06:02;;;;;;;42.55;19.02;;;;;;;2.71;77.20;100602.52;1748799;81;21978;-65
2020/12/14 12:08:30;;;;;;;44.90;20.12;;;;;;;2.71;77.15;100599.81;1739684;81;21158;-65
2020/12/14 12:10:57;;;;;;;47.20;21.17;;;;;;;2.69;76.97;100593.69;1757443;80;21174;-63
2020/12/14 12:13:25;;;;;;;45.28;20.02;;;;;;;2.65;76.98;100601.23;1740178;80;21166;-65
2020/12/14 12:15:52;;;;;;;47.90;19.05;;;;;;;2.69;77.08;100593.69;1757787;80;21177;-62
2020/12/14 12:18:20;;;;;;;48.83;21.20;;;;;;;2.71;76.93;100594.41;1764000;80;21829;-62
2020/12/14 12:20:47;;;;;;;46.45;20.08;;;;;;;2.69;76.83;100600.45;1763355;80;21830;-64
2020/12/14 12:23:15;;;;;;;49.95;22.15;;;;;;;2.64;76.89;100602.23;1739277;81;21879;-64
2020/12/14 12:25:42;;;;;;;47.93;21.20;;;;;;;2.65;76.97;100597.18;1738077;81;21373;-67
2020/12/14 12:28:13;;;;;;;47.58;19.55;;;;;;;2.65;77.08;100595.83;1744082;80;21193;-65
2020/12/14 12:30:40;;;;;;;42.43;17.77;;;;;;;2.69;77.13;100595.05;1763014;80;21424;-66
2020/12/14 12:33:08;;;;;;;42.27;18.65;;;;;;;2.70;77.06;100598.95;1741750;81;21535;-65
2020/12/14 12:35:35;;;;;;;42.80;18.07;;;;;;;2.71;76.96;100602.02;1750191;80;21477;-66
2020/12/14 12:38:03;;;;;;;39.40;18.80;;;;;;;2.69;76.89;100609.42;1759186;81;21373;-67
2020/12/14 12:40:30;;;;;;;38.65;16.37;;;;;;;2.68;77.01;100605.01;1767582;80;21181;-66
2020/12/14 12:42:58;;;;;;;43.95;19.75;;;;;;;2.69;76.95;100608.56;1750038;80;21121;-67
2020/12/14 12:45:25;;;;;;;48.90;20.25;;;;;;;2.64;76.94;100617.11;1760638;81;21158;-66
2020/12/14 12:47:52;;;;;;;53.70;19.12;;;;;;;2.61;76.90;100616.54;1741602;81;21839;-64
2020/12/14 12:50:21;;;;;;;51.25;19.23;;;;;;;2.62;76.92;100624.52;1762783;80;21222;-65
2020/12/14 12:52:49;;;;;;;43.98;18.20;;;;;;;2.63;76.88;100624.88;1728839;80;21499;-67
2020/12/14 12:55:16;;;;;;;44.40;18.10;;;;;;;2.64;76.87;100623.87;1705304;82;21438;-65
2020/12/14 12:57:44;;;;;;;57.05;20.50;;;;;;;2.64;76.89;100623.02;1763126;80;21919;-64
2020/12/14 13:00:12;;;;;;;49.50;16.97;;;;;;;2.66;76.91;100621.88;1744434;81;21289;-65
2020/12/14 13:02:40;;;;;;;44.20;18.00;;;;;;;2.66;76.78;100616.97;1717772;82;21476;-63
2020/12/14 13:05:07;;;;;;;43.92;16.42;;;;;;;2.61;76.69;100624.16;1710553;83;21413;-62
2020/12/14 13:07:36;;;;;;;39.78;14.95;;;;;;;2.59;76.67;100624.77;1720053;83;21165;-63
2020/12/14 13:10:04;;;;;;;42.48;15.90;;;;;;;2.59;76.62;100624.77;1720062;83;21178;-64
2020/12/14 13:12:31;;;;;;;39.70;15.93;;;;;;;2.56;76.65;100619.63;1706446;83;21468;-65
2020/12/14 13:14:58;;;;;;;47.98;18.73;;;;;;;2.52;76.72;100618.20;1691065;84;21978;-66
2020/12/14 13:17:26;;;;;;;49.45;17.35;;;;;;;2.50;76.83;100613.44;1691169;84;21788;-65
2020/12/14 13:19:54;;;;;;;38.53;17.17;;;;;;;2.48;76.97;100609.52;1691425;84;21141;-64
2020/12/14 13:22:22;;;;;;;46.30;18.07;;;;;;;2.49;77.10;100605.82;1719139;83;21138;-67
2020/12/14 13:24:49;;;;;;;41.80;16.27;;;;;;;2.51;77.12;100617.85;1720121;83;21922;-66
2020/12/14 13:27:17;;;;;;;39.35;15.90;;;;;;;2.53;77.07;100617.21;1784141;80;21166;-67
2020/12/14 13:29:44;;;;;;;39.13;16.85;;;;;;;2.53;76.97;100614.50;1785303;80;21154;-67
2020/12/14 13:32:12;;;;;;;36.88;16.42;;;;;;;2.51;77.03;100609.73;1785201;80;21332;-66